createdAt,value
2022-08-28T00:02:20.204Z,20.74
2022-08-28T00:05:23.668Z,20.70
2022-08-28T00:08:26.866Z,20.52
2022-08-28T00:11:28.560Z,20.49
2022-08-28T00:14:30.458Z,20.29
2022-08-28T00:17:32.297Z,20.16
2022-08-28T00:20:34.506Z,20.20
2022-08-28T00:23:42.864Z,20.19
2022-08-28T00:26:44.979Z,20.29
2022-08-28T00:29:46.718Z,20.37
2022-08-28T00:32:48.438Z,20.44
2022-08-28T00:35:50.756Z,20.49
2022-08-28T00:38:53.829Z,20.48
2022-08-28T00:41:56.665Z,20.41
2022-08-28T00:44:59.888Z,20.20
2022-08-28T00:48:01.858Z,20.29
2022-08-28T00:51:04.397Z,20.28
2022-08-28T00:54:08.158Z,20.19
2022-08-28T00:57:11.387Z,20.13
2022-08-28T01:00:14.435Z,20.16
2022-08-28T01:03:17.017Z,20.15
2022-08-28T01:06:19.025Z,20.22
2022-08-28T01:09:22.526Z,20.24
2022-08-28T01:12:26.606Z,20.29
2022-08-28T01:15:30.073Z,20.31
2022-08-28T01:18:32.752Z,20.35
2022-08-28T01:21:39.852Z,20.34
2022-08-28T01:24:44.736Z,20.33
2022-08-28T01:27:46.948Z,20.28
2022-08-28T01:30:48.890Z,20.27
2022-08-28T01:33:51.028Z,20.23
2022-08-28T01:36:52.681Z,20.13
2022-08-28T01:39:55.811Z,20.13
2022-08-28T01:43:06.124Z,19.78
2022-08-28T01:46:07.897Z,19.90
2022-08-28T01:49:10.524Z,19.97
2022-08-28T01:52:12.289Z,20.04
2022-08-28T01:55:15.425Z,20.10
2022-08-28T01:58:22.550Z,20.15
2022-08-28T02:01:24.447Z,20.19
2022-08-28T02:04:31.831Z,20.21
2022-08-28T02:07:34.157Z,20.13
2022-08-28T02:10:38.491Z,20.11
2022-08-28T02:13:40.463Z,20.04
2022-08-28T02:16:42.118Z,20.09
2022-08-28T02:19:43.793Z,20.07
2022-08-28T02:22:46.298Z,20.06
2022-08-28T02:25:49.877Z,20.11
2022-08-28T02:28:52.590Z,20.12
2022-08-28T02:31:54.263Z,20.01
2022-08-28T02:34:55.977Z,19.57
2022-08-28T02:37:57.653Z,19.60
2022-08-28T02:41:04.286Z,19.65
2022-08-28T02:44:06.168Z,19.72
2022-08-28T02:47:08.524Z,19.82
2022-08-28T02:50:11.263Z,19.92
2022-08-28T02:53:13.202Z,19.92
2022-08-28T02:56:17.011Z,19.90
2022-08-28T02:59:18.787Z,20.03
2022-08-28T03:02:20.516Z,19.99
2022-08-28T03:05:23.448Z,20.00
2022-08-28T03:08:27.237Z,19.97
2022-08-28T03:11:30.584Z,19.92
2022-08-28T03:14:32.227Z,19.93
2022-08-28T03:17:34.292Z,19.88
2022-08-28T03:20:35.933Z,19.88
2022-08-28T03:23:39.217Z,19.89
2022-08-28T03:26:42.251Z,19.89
2022-08-28T03:29:43.906Z,19.91
2022-08-28T03:32:45.554Z,19.89
2022-08-28T03:35:47.939Z,19.91
2022-08-28T03:38:49.812Z,19.92
2022-08-28T03:41:52.879Z,19.93
2022-08-28T03:44:54.524Z,19.89
2022-08-28T03:47:56.190Z,19.93
2022-08-28T03:50:58.340Z,19.93
2022-08-28T03:54:00.837Z,19.85
2022-08-28T03:57:04.076Z,19.73
2022-08-28T04:00:06.862Z,19.81
2022-08-28T04:03:08.717Z,19.74
2022-08-28T04:06:10.833Z,19.69
2022-08-28T04:09:12.568Z,19.58
2022-08-28T04:12:15.642Z,19.44
2022-08-28T04:15:17.311Z,19.45
2022-08-28T04:18:18.995Z,19.38
2022-08-28T04:21:22.309Z,19.33
2022-08-28T04:24:23.995Z,19.39
2022-08-28T04:27:27.103Z,19.36
2022-08-28T04:30:28.745Z,19.35
2022-08-28T04:33:30.554Z,19.30
2022-08-28T04:36:32.703Z,19.18
2022-08-28T04:39:34.346Z,19.22
2022-08-28T04:42:38.501Z,19.23
2022-08-28T04:45:40.818Z,19.28
2022-08-28T04:48:42.573Z,19.38
2022-08-28T04:51:44.246Z,19.24
2022-08-28T04:54:48.892Z,19.14
2022-08-28T04:57:51.937Z,19.04
2022-08-28T05:00:54.149Z,19.06
2022-08-28T05:03:57.523Z,18.95
2022-08-28T05:06:59.436Z,19.05
2022-08-28T05:10:01.124Z,19.10
2022-08-28T05:13:04.165Z,19.08
2022-08-28T05:16:06.404Z,19.17
2022-08-28T05:19:08.247Z,19.20
2022-08-28T05:22:10.535Z,19.17
2022-08-28T05:25:12.272Z,19.14
2022-08-28T05:28:16.384Z,19.16
2022-08-28T05:31:19.354Z,19.14
2022-08-28T05:34:21.040Z,19.23
2022-08-28T05:37:22.690Z,19.24
2022-08-28T05:40:24.410Z,19.26
2022-08-28T05:43:27.616Z,19.21
2022-08-28T05:46:29.617Z,19.23
2022-08-28T05:49:31.308Z,19.18
2022-08-28T05:52:34.127Z,19.17
2022-08-28T05:55:39.348Z,19.08
2022-08-28T05:58:42.702Z,19.06
2022-08-28T06:01:45.752Z,19.06
2022-08-28T06:04:47.456Z,19.12
2022-08-28T06:07:49.290Z,19.11
2022-08-28T06:10:51.074Z,19.12
2022-08-28T06:13:54.132Z,19.15
2022-08-28T06:16:57.161Z,19.18
2022-08-28T06:19:58.811Z,19.23
2022-08-28T06:23:00.440Z,19.27
2022-08-28T06:26:02.143Z,19.31
2022-08-28T06:29:07.580Z,19.36
2022-08-28T06:32:09.319Z,19.32
2022-08-28T06:35:11.017Z,19.24
2022-08-28T06:38:12.753Z,19.21
2022-08-28T06:41:14.548Z,18.96
2022-08-28T06:44:18.464Z,19.02
2022-08-28T06:47:20.157Z,19.11
2022-08-28T06:50:21.813Z,18.80
2022-08-28T06:53:24.420Z,18.59
2022-08-28T06:56:29.181Z,18.74
2022-08-28T06:59:32.240Z,18.82
2022-08-28T07:02:34.348Z,18.76
2022-08-28T07:05:36.021Z,18.68
2022-08-28T07:08:38.188Z,18.74
2022-08-28T07:11:40.109Z,18.72
2022-08-28T07:14:43.610Z,18.63
2022-08-28T07:17:45.228Z,18.74
2022-08-28T07:20:54.737Z,18.84
2022-08-28T07:23:56.569Z,18.78
2022-08-28T07:26:58.253Z,18.79
2022-08-28T07:30:01.308Z,18.89
2022-08-28T07:33:03.226Z,18.82
2022-08-28T07:36:06.134Z,18.94
2022-08-28T07:39:08.384Z,18.81
2022-08-28T07:42:10.122Z,18.72
2022-08-28T07:45:13.209Z,18.77
2022-08-28T07:48:15.006Z,18.80
2022-08-28T07:51:16.793Z,18.87
2022-08-28T07:54:18.532Z,18.86
2022-08-28T07:57:20.541Z,18.76
2022-08-28T08:00:26.014Z,18.88
2022-08-28T08:03:29.188Z,18.99
2022-08-28T08:06:33.769Z,18.90
2022-08-28T08:09:37.325Z,18.82
2022-08-28T08:12:39.423Z,18.89
2022-08-28T08:15:42.966Z,19.05
2022-08-28T08:18:45.005Z,19.00
2022-08-28T08:21:47.657Z,19.09
2022-08-28T08:24:49.332Z,19.10
2022-08-28T08:27:50.967Z,19.13
2022-08-28T08:31:03.737Z,19.09
2022-08-28T08:34:05.587Z,19.06
2022-08-28T08:37:08.093Z,18.88
2022-08-28T08:40:11.640Z,18.92
2022-08-28T08:43:14.505Z,19.07
2022-08-28T08:46:18.215Z,19.29
2022-08-28T08:49:22.556Z,19.37
2022-08-28T08:52:35.012Z,19.44
2022-08-28T08:55:42.099Z,19.51
2022-08-28T08:58:45.555Z,19.28
2022-08-28T09:01:52.148Z,19.34
2022-08-28T09:04:57.268Z,19.44
2022-08-28T09:08:01.171Z,19.45
2022-08-28T09:11:07.071Z,19.31
2022-08-28T09:14:11.936Z,19.32
2022-08-28T09:17:16.524Z,19.26
2022-08-28T09:20:19.858Z,19.15
2022-08-28T09:23:30.094Z,19.21
2022-08-28T09:26:31.881Z,19.20
2022-08-28T09:29:34.584Z,18.76
2022-08-28T09:32:39.677Z,18.76
2022-08-28T09:35:41.573Z,18.81
2022-08-28T09:38:43.216Z,18.88
2022-08-28T09:41:50.617Z,18.93
2022-08-28T09:44:54.902Z,19.00
2022-08-28T09:48:00.018Z,19.00
2022-08-28T09:51:02.820Z,19.09
2022-08-28T09:54:09.532Z,19.17
2022-08-28T09:57:11.453Z,19.12
2022-08-28T10:00:13.737Z,19.12
2022-08-28T10:03:20.362Z,19.15
2022-08-28T10:06:24.886Z,19.25
2022-08-28T10:09:29.455Z,19.35
2022-08-28T10:12:35.759Z,19.31
2022-08-28T10:15:45.490Z,19.42
2022-08-28T10:18:53.018Z,19.37
2022-08-28T10:22:01.217Z,19.39
2022-08-28T10:25:13.596Z,19.09
2022-08-28T10:28:25.516Z,19.10
2022-08-28T10:31:31.674Z,19.21
2022-08-28T10:34:42.979Z,19.10
2022-08-28T10:37:51.524Z,19.03
2022-08-28T10:40:55.554Z,19.03
2022-08-28T10:44:00.831Z,18.96
2022-08-28T10:47:03.470Z,19.06
2022-08-28T10:50:08.462Z,19.14
2022-08-28T10:53:12.773Z,19.15
2022-08-28T10:56:17.165Z,19.15
2022-08-28T10:59:18.761Z,19.22
2022-08-28T11:02:22.496Z,19.24
2022-08-28T11:05:28.598Z,19.33
2022-08-28T11:08:31.920Z,19.31
2022-08-28T11:11:41.055Z,19.27
2022-08-28T11:14:48.441Z,19.32
2022-08-28T11:17:50.570Z,19.44
2022-08-28T11:20:57.202Z,19.38
2022-08-28T11:24:00.957Z,19.36
2022-08-28T11:27:11.399Z,19.39
2022-08-28T11:30:30.956Z,19.36
2022-08-28T11:33:38.196Z,19.34
2022-08-28T11:36:58.725Z,19.38
2022-08-28T11:40:13.736Z,19.39
2022-08-28T11:43:33.418Z,19.25
2022-08-28T11:46:36.368Z,19.33
2022-08-28T11:49:40.543Z,19.36
2022-08-28T11:52:52.209Z,19.28
2022-08-28T11:56:28.282Z,19.51
2022-08-28T11:59:43.266Z,19.45
2022-08-28T12:02:53.182Z,19.50
2022-08-28T12:05:56.071Z,19.52
2022-08-28T12:09:03.933Z,19.34
2022-08-28T12:12:09.123Z,19.31
2022-08-28T12:15:11.149Z,19.41
2022-08-28T12:18:14.887Z,19.36
2022-08-28T12:21:17.800Z,19.45
2022-08-28T12:24:22.222Z,19.55
2022-08-28T12:27:24.497Z,19.59
2022-08-28T12:30:27.628Z,19.75
2022-08-28T12:33:33.824Z,19.73
2022-08-28T12:36:35.553Z,19.76
2022-08-28T12:39:38.654Z,19.86
2022-08-28T12:42:46.105Z,19.88
2022-08-28T12:45:50.042Z,19.89
2022-08-28T12:48:53.075Z,19.94
2022-08-28T12:52:07.076Z,19.87
2022-08-28T12:55:10.217Z,19.86
2022-08-28T12:58:12.940Z,19.89
2022-08-28T13:01:16.202Z,19.90
2022-08-28T13:04:25.526Z,19.79
2022-08-28T13:07:29.423Z,19.92
2022-08-28T13:10:35.057Z,19.87
2022-08-28T13:13:37.840Z,19.88
2022-08-28T13:16:40.639Z,19.88
2022-08-28T13:19:42.383Z,19.75
2022-08-28T13:22:45.875Z,19.62
2022-08-28T13:26:02.699Z,19.67
2022-08-28T13:29:15.392Z,19.76
2022-08-28T13:32:18.054Z,19.88
2022-08-28T13:35:34.106Z,19.90
2022-08-28T13:38:35.739Z,19.96
2022-08-28T13:41:39.221Z,19.91
2022-08-28T13:44:45.325Z,19.81
2022-08-28T13:47:46.979Z,19.66
2022-08-28T13:50:50.230Z,19.81
2022-08-28T13:53:53.064Z,19.77
2022-08-28T13:56:56.441Z,19.74
2022-08-28T13:59:58.129Z,19.71
2022-08-28T14:02:59.794Z,19.71
2022-08-28T14:06:01.786Z,19.55
2022-08-28T14:09:03.549Z,19.69
2022-08-28T14:12:06.931Z,19.54
2022-08-28T14:15:09.172Z,19.63
2022-08-28T14:18:10.836Z,19.45
2022-08-28T14:21:12.650Z,19.71
2022-08-28T14:24:14.325Z,19.65
2022-08-28T14:27:17.644Z,19.76
2022-08-28T14:30:19.392Z,19.90
2022-08-28T14:33:21.211Z,20.02
2022-08-28T14:36:24.929Z,20.14
2022-08-28T14:39:26.915Z,20.35
2022-08-28T14:42:29.981Z,20.39
2022-08-28T14:45:31.717Z,20.46
2022-08-28T14:48:33.526Z,20.63
2022-08-28T14:51:36.283Z,20.76
2022-08-28T14:54:38.635Z,20.57
2022-08-28T14:57:41.714Z,20.66
2022-08-28T15:00:45.074Z,20.80
2022-08-28T15:03:47.026Z,20.82
2022-08-28T15:06:48.986Z,20.78
2022-08-28T15:09:50.625Z,20.70
2022-08-28T15:12:53.666Z,20.87
2022-08-28T15:16:00.878Z,20.83
2022-08-28T15:19:02.780Z,20.88
2022-08-28T15:22:04.529Z,20.59
2022-08-28T15:25:06.412Z,20.41
2022-08-28T15:28:09.544Z,20.36
2022-08-28T15:31:11.312Z,20.15
2022-08-28T15:34:14.757Z,19.92
2022-08-28T15:37:16.449Z,19.97
2022-08-28T15:40:18.191Z,19.86
2022-08-28T15:43:21.316Z,19.95
2022-08-28T15:46:23.507Z,19.87
2022-08-28T15:49:27.519Z,19.96
2022-08-28T15:52:29.177Z,20.04
2022-08-28T15:55:30.937Z,20.11
2022-08-28T15:58:33.989Z,20.12
2022-08-28T16:01:35.767Z,20.09
2022-08-28T16:04:37.436Z,19.90
2022-08-28T16:07:39.262Z,19.93
2022-08-28T16:10:40.909Z,19.71
2022-08-28T16:13:44.142Z,19.99
2022-08-28T16:16:46.626Z,19.87
2022-08-28T16:19:52.731Z,19.78
2022-08-28T16:22:54.367Z,19.73
2022-08-28T16:25:56.031Z,19.80
2022-08-28T16:28:59.091Z,19.81
2022-08-28T16:32:00.762Z,19.83
2022-08-28T16:35:03.078Z,19.93
2022-08-28T16:38:04.750Z,19.69
2022-08-28T16:41:10.346Z,19.81
2022-08-28T16:44:13.402Z,19.86
2022-08-28T16:47:15.314Z,19.93
2022-08-28T16:50:17.682Z,19.95
2022-08-28T16:53:20.040Z,19.91
2022-08-28T16:56:28.666Z,19.83
2022-08-28T16:59:31.716Z,19.80
2022-08-28T17:02:33.547Z,19.75
2022-08-28T17:05:36.780Z,19.77
2022-08-28T17:08:40.218Z,19.82
2022-08-28T17:11:41.982Z,19.90
2022-08-28T17:14:45.585Z,19.89
2022-08-28T17:17:47.251Z,19.92
2022-08-28T17:20:48.936Z,19.93
2022-08-28T17:23:50.845Z,19.84
2022-08-28T17:26:52.745Z,19.82
2022-08-28T17:29:55.836Z,19.83
2022-08-28T17:32:57.594Z,19.84
2022-08-28T17:35:59.478Z,19.83
2022-08-28T17:39:02.152Z,19.81
2022-08-28T17:42:04.226Z,19.80
2022-08-28T17:45:08.512Z,19.81
2022-08-28T17:48:10.741Z,19.84
2022-08-28T17:51:12.675Z,19.83
2022-08-28T17:54:19.355Z,19.85
2022-08-28T17:57:21.348Z,19.84
2022-08-28T18:00:24.501Z,19.75
2022-08-28T18:03:26.432Z,19.80
2022-08-28T18:06:28.478Z,19.78
2022-08-28T18:09:30.530Z,19.74
2022-08-28T18:12:32.901Z,19.72
2022-08-28T18:15:36.738Z,19.68
2022-08-28T18:18:39.085Z,19.70
2022-08-28T18:21:41.199Z,19.71
2022-08-28T18:24:43.290Z,19.73
2022-08-28T18:27:45.324Z,19.71
2022-08-28T18:30:49.365Z,19.66
2022-08-28T18:33:51.488Z,19.69
2022-08-28T18:36:53.560Z,19.67
2022-08-28T18:39:55.649Z,19.68
2022-08-28T18:42:58.425Z,19.70
2022-08-28T18:46:02.294Z,19.73
2022-08-28T18:49:04.375Z,19.66
2022-08-28T18:52:06.695Z,19.65
2022-08-28T18:55:09.433Z,19.65
2022-08-28T18:58:15.275Z,19.62
2022-08-28T19:01:19.120Z,19.67
2022-08-28T19:04:21.268Z,19.59
2022-08-28T19:07:23.487Z,19.57
2022-08-28T19:10:33.407Z,19.62
2022-08-28T19:13:36.848Z,19.48
2022-08-28T19:16:40.796Z,19.58
2022-08-28T19:19:42.793Z,19.55
2022-08-28T19:22:47.855Z,19.57
2022-08-28T19:25:49.978Z,19.56
2022-08-28T19:28:52.124Z,19.57
2022-08-28T19:31:55.693Z,19.51
2022-08-28T19:34:58.757Z,19.51
2022-08-28T19:38:00.921Z,19.55
2022-08-28T19:41:05.564Z,19.57
2022-08-28T19:44:07.800Z,19.49
2022-08-28T19:47:11.481Z,19.49
2022-08-28T19:50:13.696Z,19.55
2022-08-28T19:53:15.774Z,19.56
2022-08-28T19:56:18.064Z,19.53
2022-08-28T19:59:23.960Z,19.55
2022-08-28T20:02:30.042Z,19.49
2022-08-28T20:05:32.127Z,19.41
2022-08-28T20:08:34.613Z,19.48
2022-08-28T20:11:36.389Z,19.49
2022-08-28T20:14:38.614Z,19.48
2022-08-28T20:17:44.124Z,19.54
2022-08-28T20:20:51.843Z,19.52
2022-08-28T20:23:54.026Z,19.39
2022-08-28T20:26:55.697Z,19.39
2022-08-28T20:29:57.382Z,19.40
2022-08-28T20:33:00.480Z,19.29
2022-08-28T20:36:03.244Z,19.25
2022-08-28T20:39:05.266Z,19.12
2022-08-28T20:42:07.135Z,19.06
2022-08-28T20:45:09.155Z,19.07
2022-08-28T20:48:12.378Z,19.10
2022-08-28T20:51:14.117Z,19.18
2022-08-28T20:54:16.139Z,19.19
2022-08-28T20:57:19.335Z,19.14
2022-08-28T21:00:21.598Z,19.16
2022-08-28T21:03:25.228Z,19.12
2022-08-28T21:06:30.597Z,19.15
2022-08-28T21:09:39.557Z,19.10
2022-08-28T21:12:53.885Z,18.87
2022-08-28T21:15:55.537Z,18.80
2022-08-28T21:19:15.102Z,18.84
2022-08-28T21:22:17.235Z,18.71
2022-08-28T21:25:22.500Z,18.76
2022-08-28T21:28:24.201Z,18.75
2022-08-28T21:31:26.088Z,18.75
2022-08-28T21:34:29.170Z,18.64
2022-08-28T21:37:31.122Z,18.45
2022-08-28T21:40:33.063Z,18.49
2022-08-28T21:43:35.114Z,18.53
2022-08-28T21:46:36.797Z,18.56
2022-08-28T21:49:39.824Z,18.56
2022-08-28T21:52:41.451Z,18.64
2022-08-28T21:55:47.037Z,18.68
2022-08-28T21:58:48.980Z,18.73
2022-08-28T22:01:50.635Z,18.77
2022-08-28T22:04:53.711Z,18.78
2022-08-28T22:07:55.407Z,18.77
2022-08-28T22:10:57.069Z,18.81
2022-08-28T22:13:58.709Z,18.82
2022-08-28T22:17:00.430Z,18.78
2022-08-28T22:20:03.980Z,18.79
2022-08-28T22:23:05.827Z,18.74
2022-08-28T22:26:12.650Z,18.69
2022-08-28T22:29:14.329Z,18.69
2022-08-28T22:32:16.055Z,18.69
2022-08-28T22:35:19.261Z,18.69
2022-08-28T22:38:21.318Z,18.72
2022-08-28T22:41:23.108Z,18.74
2022-08-28T22:44:26.031Z,18.69
2022-08-28T22:47:27.700Z,18.57
2022-08-28T22:50:30.770Z,18.56
2022-08-28T22:53:32.466Z,18.57
2022-08-28T22:56:34.124Z,18.57
2022-08-28T22:59:35.853Z,18.53
2022-08-28T23:02:38.112Z,18.49
2022-08-28T23:05:41.239Z,18.39
2022-08-28T23:08:43.064Z,18.37
2022-08-28T23:11:44.805Z,18.33
2022-08-28T23:14:48.603Z,18.35
2022-08-28T23:17:50.682Z,18.40
2022-08-28T23:20:53.784Z,18.43
2022-08-28T23:23:56.336Z,18.36
2022-08-28T23:27:14.003Z,18.34
2022-08-28T23:30:20.791Z,18.15
2022-08-28T23:33:23.707Z,18.13
2022-08-28T23:36:27.265Z,18.01
2022-08-28T23:39:28.907Z,17.84
2022-08-28T23:42:32.181Z,17.81
2022-08-28T23:45:33.833Z,17.80
2022-08-28T23:48:35.603Z,17.68
2022-08-28T23:51:39.216Z,17.64
2022-08-28T23:54:41.228Z,17.44
2022-08-28T23:57:42.963Z,17.44
